Terminal Aerodrome Forecast
Issued by NWS

Home | Current Version | Previous Version | Text Only | Print | Product List | Glossary On
Versions: 1 2 3 4 5 6 7 8 9 10 11 12 13 14 15
000
FTUS46 KPDT 191120
TAFPSC
TAF
KPSC 191120Z 1912/2012 20007KT P6SM BKN100
     FM191400 21011KT P6SM OVC080
     FM192200 24014G22KT P6SM -RA OVC045
     FM200800 22012KT P6SM BKN070=

USA.gov is the U.S. government's official web portal to all federal, state and local government web resources and services.